createdAt,value
2022-11-25T00:01:27.840Z,4.40
2022-11-25T00:03:57.639Z,4.10
2022-11-25T00:06:26.892Z,3.57
2022-11-25T00:08:59.520Z,4.20
2022-11-25T00:11:26.627Z,4.40
2022-11-25T00:13:53.598Z,4.70
2022-11-25T00:16:22.040Z,4.50
2022-11-25T00:18:50.762Z,4.33
2022-11-25T00:21:20.348Z,3.67
2022-11-25T00:24:01.403Z,4.17
2022-11-25T00:26:29.277Z,3.47
2022-11-25T00:28:58.141Z,3.43
2022-11-25T00:31:27.605Z,4.13
2022-11-25T00:33:54.392Z,4.07
2022-11-25T00:36:26.607Z,3.87
2022-11-25T00:38:58.224Z,3.20
2022-11-25T00:41:44.028Z,3.13
2022-11-25T00:44:30.230Z,3.47
2022-11-25T00:46:57.134Z,3.57
2022-11-25T00:49:23.685Z,3.60
2022-11-25T00:51:50.370Z,4.47
2022-11-25T00:54:16.829Z,4.43
2022-11-25T00:56:43.487Z,4.03
2022-11-25T00:59:09.980Z,4.27
2022-11-25T01:01:37.052Z,3.30
2022-11-25T01:04:04.677Z,4.20
2022-11-25T01:06:31.257Z,3.47
2022-11-25T01:08:57.784Z,4.20
2022-11-25T01:11:24.934Z,4.37
2022-11-25T01:13:54.462Z,4.00
2022-11-25T01:16:25.065Z,4.77
2022-11-25T01:18:52.190Z,3.93
2022-11-25T01:21:23.776Z,3.20
2022-11-25T01:23:51.018Z,3.70
2022-11-25T01:26:22.217Z,4.73
2022-11-25T01:28:49.109Z,3.73
2022-11-25T01:31:18.025Z,3.37
2022-11-25T01:33:46.189Z,3.43
2022-11-25T01:36:17.274Z,3.33
2022-11-25T01:38:44.861Z,3.83
2022-11-25T01:41:14.680Z,3.40
2022-11-25T01:43:41.791Z,4.07
2022-11-25T01:46:30.644Z,3.50
2022-11-25T01:49:00.860Z,3.30
2022-11-25T01:51:40.159Z,3.80
2022-11-25T01:54:07.456Z,3.83
2022-11-25T01:56:43.569Z,4.13
2022-11-25T01:59:10.108Z,4.00
2022-11-25T02:01:36.906Z,3.73
2022-11-25T02:04:04.238Z,4.83
2022-11-25T02:06:42.409Z,3.83
2022-11-25T02:09:09.456Z,4.43
2022-11-25T02:11:38.914Z,3.87
2022-11-25T02:14:06.116Z,5.00
2022-11-25T02:16:32.680Z,4.97
2022-11-25T02:18:59.269Z,4.80
2022-11-25T02:21:41.261Z,4.53
2022-11-25T02:24:14.286Z,4.50
2022-11-25T02:26:40.938Z,4.47
2022-11-25T02:29:07.698Z,4.00
2022-11-25T02:31:34.302Z,4.37
2022-11-25T02:34:00.865Z,5.03
2022-11-25T02:36:27.587Z,5.00
2022-11-25T02:38:57.261Z,4.80
2022-11-25T02:41:29.314Z,3.70
2022-11-25T02:43:55.939Z,4.67
2022-11-25T02:46:24.491Z,3.87
2022-11-25T02:49:09.942Z,5.23
2022-11-25T02:51:37.466Z,4.60
2022-11-25T02:54:04.099Z,5.30
2022-11-25T02:56:34.172Z,4.20
2022-11-25T02:59:01.408Z,4.07
2022-11-25T03:01:29.851Z,4.03
2022-11-25T03:03:56.780Z,4.47
2022-11-25T03:06:23.448Z,4.00
2022-11-25T03:08:50.198Z,3.40
2022-11-25T03:11:16.764Z,3.93
2022-11-25T03:13:43.234Z,3.60
2022-11-25T03:16:09.868Z,3.93
2022-11-25T03:18:36.480Z,4.10
2022-11-25T03:21:03.173Z,4.20
2022-11-25T03:23:29.783Z,4.10
2022-11-25T03:25:56.619Z,5.10
2022-11-25T03:28:23.384Z,4.80
2022-11-25T03:30:49.869Z,3.67
2022-11-25T03:33:16.451Z,3.67
2022-11-25T03:35:42.947Z,4.40
2022-11-25T03:38:09.437Z,4.13
2022-11-25T03:40:36.055Z,3.60
2022-11-25T03:43:02.507Z,4.27
2022-11-25T03:45:29.025Z,4.93
2022-11-25T03:47:55.633Z,4.23
2022-11-25T03:50:22.119Z,4.20
2022-11-25T03:52:48.901Z,4.13
2022-11-25T03:55:15.444Z,4.67
2022-11-25T03:57:42.041Z,3.50
2022-11-25T04:00:09.575Z,4.53
2022-11-25T04:02:36.197Z,3.60
2022-11-25T04:05:03.214Z,5.00
2022-11-25T04:07:29.803Z,3.33
2022-11-25T04:09:56.476Z,6.00
2022-11-25T04:12:41.213Z,3.33
2022-11-25T04:15:08.178Z,4.70
2022-11-25T04:17:34.755Z,4.90
2022-11-25T04:20:01.273Z,4.60
2022-11-25T04:22:27.850Z,5.70
2022-11-25T04:24:54.440Z,4.20
2022-11-25T04:27:21.147Z,3.40
2022-11-25T04:29:48.155Z,3.77
2022-11-25T04:32:14.715Z,2.93
2022-11-25T04:34:41.214Z,3.87
2022-11-25T04:37:07.761Z,3.33
2022-11-25T04:39:34.192Z,4.50
2022-11-25T04:42:19.143Z,3.70
2022-11-25T04:44:56.084Z,4.07
2022-11-25T04:47:32.241Z,3.30
2022-11-25T04:49:59.278Z,3.93
2022-11-25T04:52:26.203Z,3.67
2022-11-25T04:54:52.780Z,4.20
2022-11-25T04:57:19.652Z,3.30
2022-11-25T04:59:46.685Z,3.53
2022-11-25T05:02:18.739Z,4.67
2022-11-25T05:04:46.770Z,3.33
2022-11-25T05:07:14.343Z,3.43
2022-11-25T05:09:40.902Z,3.50
2022-11-25T05:12:10.678Z,4.10
2022-11-25T05:14:37.771Z,4.20
2022-11-25T05:17:05.233Z,3.67
2022-11-25T05:19:31.780Z,3.73
2022-11-25T05:21:58.384Z,3.10
2022-11-25T05:24:25.922Z,3.87
2022-11-25T05:26:52.435Z,4.50
2022-11-25T05:29:19.235Z,3.37
2022-11-25T05:31:45.892Z,3.20
2022-11-25T05:34:13.165Z,3.23
2022-11-25T05:36:39.684Z,3.50
2022-11-25T05:39:06.172Z,3.53
2022-11-25T05:41:32.687Z,3.60
2022-11-25T05:43:59.526Z,3.73
2022-11-25T05:46:26.130Z,3.60
2022-11-25T05:48:54.447Z,3.40
2022-11-25T05:51:21.489Z,3.60
2022-11-25T05:53:47.976Z,2.70
2022-11-25T05:56:14.539Z,4.80
2022-11-25T05:58:40.998Z,2.70
2022-11-25T06:01:11.978Z,3.70
2022-11-25T06:03:38.933Z,3.67
2022-11-25T06:06:06.258Z,3.40
2022-11-25T06:08:33.202Z,3.97
2022-11-25T06:10:59.792Z,2.93
2022-11-25T06:13:26.316Z,3.80
2022-11-25T06:15:52.872Z,3.90
2022-11-25T06:18:19.352Z,4.03
2022-11-25T06:20:46.014Z,4.00
2022-11-25T06:23:12.425Z,3.00
2022-11-25T06:25:38.973Z,3.53
2022-11-25T06:28:12.742Z,3.03
2022-11-25T06:30:39.969Z,3.30
2022-11-25T06:33:06.546Z,3.47
2022-11-25T06:35:33.026Z,3.27
2022-11-25T06:37:59.709Z,3.37
2022-11-25T06:40:26.316Z,3.40
2022-11-25T06:42:52.851Z,2.80
2022-11-25T06:45:19.520Z,3.00
2022-11-25T06:47:46.074Z,3.00
2022-11-25T06:50:12.591Z,3.53
2022-11-25T06:52:39.269Z,3.70
2022-11-25T06:55:06.997Z,3.07
2022-11-25T06:57:33.533Z,3.50
2022-11-25T07:00:00.094Z,4.10
2022-11-25T07:02:26.626Z,3.33
2022-11-25T07:04:53.941Z,3.10
2022-11-25T07:07:20.554Z,2.90
2022-11-25T07:09:47.649Z,3.10
2022-11-25T07:12:14.313Z,2.40
2022-11-25T07:14:40.777Z,3.27
2022-11-25T07:17:11.713Z,3.90
2022-11-25T07:19:38.819Z,3.00
2022-11-25T07:22:06.356Z,3.67
2022-11-25T07:24:33.888Z,2.70
2022-11-25T07:27:00.732Z,3.13
2022-11-25T07:29:54.138Z,3.20
2022-11-25T07:32:15.052Z,3.10
2022-11-25T07:34:41.597Z,3.80
2022-11-25T07:37:08.300Z,3.70
2022-11-25T07:39:35.204Z,3.00
2022-11-25T07:42:02.041Z,3.20
2022-11-25T07:44:28.574Z,3.80
2022-11-25T07:46:55.424Z,3.30
2022-11-25T07:49:25.301Z,2.87
2022-11-25T07:51:54.548Z,3.27
2022-11-25T07:54:22.271Z,3.33
2022-11-25T07:56:50.565Z,3.60
2022-11-25T07:59:19.581Z,3.17
2022-11-25T08:01:46.866Z,2.77
2022-11-25T08:04:19.732Z,3.67
2022-11-25T08:06:49.255Z,4.50
2022-11-25T08:09:20.605Z,4.37
2022-11-25T08:11:48.136Z,3.33
2022-11-25T08:14:15.291Z,3.40
2022-11-25T08:16:42.036Z,2.83
2022-11-25T08:19:11.627Z,3.60
2022-11-25T08:21:38.331Z,3.10
2022-11-25T08:24:05.438Z,3.23
2022-11-25T08:26:36.548Z,3.50
2022-11-25T08:29:04.801Z,3.60
2022-11-25T08:31:36.120Z,3.03
2022-11-25T08:34:03.336Z,3.17
2022-11-25T08:36:30.657Z,2.90
2022-11-25T08:38:58.771Z,3.60
2022-11-25T08:41:31.698Z,2.97
2022-11-25T08:43:59.769Z,3.17
2022-11-25T08:46:29.138Z,2.77
2022-11-25T08:48:56.666Z,2.40
2022-11-25T08:51:27.237Z,2.80
2022-11-25T08:53:53.812Z,4.10
2022-11-25T08:56:25.722Z,3.00
2022-11-25T08:58:52.792Z,2.00
2022-11-25T09:01:20.065Z,2.40
2022-11-25T09:03:48.960Z,2.33
2022-11-25T09:06:16.278Z,2.90
2022-11-25T09:08:43.423Z,2.17
2022-11-25T09:11:10.900Z,2.50
2022-11-25T09:13:37.709Z,2.53
2022-11-25T09:16:05.114Z,2.73
2022-11-25T09:18:32.669Z,3.60
2022-11-25T09:20:59.621Z,2.87
2022-11-25T09:23:26.631Z,2.97
2022-11-25T09:25:54.490Z,2.53
2022-11-25T09:28:22.566Z,3.10
2022-11-25T09:30:49.813Z,3.27
2022-11-25T09:33:17.272Z,2.73
2022-11-25T09:35:44.140Z,2.27
2022-11-25T09:38:10.726Z,2.40
2022-11-25T09:41:06.305Z,2.47
2022-11-25T09:44:19.203Z,2.40
2022-11-25T09:46:54.764Z,2.10
2022-11-25T09:49:35.170Z,2.60
2022-11-25T09:52:20.832Z,3.53
2022-11-25T09:55:07.712Z,2.80
2022-11-25T09:58:05.741Z,2.63
2022-11-25T10:00:42.245Z,2.70
2022-11-25T10:03:35.697Z,2.93
2022-11-25T10:06:04.586Z,2.13
2022-11-25T10:08:51.990Z,2.60
2022-11-25T10:11:25.687Z,2.50
2022-11-25T10:13:56.395Z,2.40
2022-11-25T10:16:30.971Z,3.93
2022-11-25T10:19:19.558Z,2.57
2022-11-25T10:21:46.405Z,2.97
2022-11-25T10:24:14.687Z,3.20
2022-11-25T10:26:43.924Z,2.20
2022-11-25T10:29:13.440Z,2.80
2022-11-25T10:31:42.210Z,2.27
2022-11-25T10:34:20.086Z,2.50
2022-11-25T10:36:48.926Z,2.27
2022-11-25T10:39:24.548Z,2.20
2022-11-25T10:41:55.420Z,2.50
2022-11-25T10:44:28.131Z,2.80
2022-11-25T10:47:15.491Z,2.20
2022-11-25T10:49:51.185Z,2.10
2022-11-25T10:52:22.235Z,3.33
2022-11-25T10:55:10.756Z,2.57
2022-11-25T10:57:37.443Z,2.20
2022-11-25T11:00:06.374Z,2.80
2022-11-25T11:02:35.855Z,2.87
2022-11-25T11:05:08.110Z,2.63
2022-11-25T11:07:38.358Z,2.60
2022-11-25T11:10:26.870Z,3.00
2022-11-25T11:13:01.831Z,2.57
2022-11-25T11:15:33.669Z,2.50
2022-11-25T11:18:15.346Z,2.33
2022-11-25T11:20:48.479Z,3.13
2022-11-25T11:23:15.717Z,3.60
2022-11-25T11:25:44.606Z,3.53
2022-11-25T11:28:37.370Z,2.60
2022-11-25T11:31:25.060Z,1.67
2022-11-25T11:34:23.062Z,3.10
2022-11-25T11:37:11.709Z,2.27
2022-11-25T11:40:00.073Z,2.43
2022-11-25T11:43:14.489Z,3.00
2022-11-25T11:45:59.866Z,2.80
2022-11-25T11:48:41.598Z,3.00
2022-11-25T11:51:23.333Z,2.20
2022-11-25T11:54:22.018Z,2.97
2022-11-25T11:56:56.890Z,2.50
2022-11-25T11:59:55.395Z,2.30
2022-11-25T12:02:22.073Z,2.80
2022-11-25T12:05:02.177Z,3.00
2022-11-25T12:07:47.089Z,3.53
2022-11-25T12:10:27.504Z,2.67
2022-11-25T12:13:04.669Z,3.20
2022-11-25T12:15:38.578Z,3.10
2022-11-25T12:18:15.191Z,2.20
2022-11-25T12:20:45.631Z,2.50
2022-11-25T12:23:45.645Z,2.10
2022-11-25T12:26:18.363Z,1.80
2022-11-25T12:28:53.448Z,2.40
2022-11-25T12:31:27.693Z,2.87
2022-11-25T12:34:09.639Z,2.57
2022-11-25T12:36:39.661Z,3.07
2022-11-25T12:39:25.326Z,2.10
2022-11-25T12:41:59.325Z,2.57
2022-11-25T12:44:36.287Z,3.47
2022-11-25T12:47:03.003Z,2.67
2022-11-25T12:49:32.326Z,2.90
2022-11-25T12:52:13.833Z,2.30
2022-11-25T12:55:11.793Z,2.70
2022-11-25T12:57:49.224Z,2.30
2022-11-25T13:00:43.551Z,2.67
2022-11-25T13:03:31.958Z,2.70
2022-11-25T13:06:06.859Z,3.20
2022-11-25T13:09:03.925Z,2.43
2022-11-25T13:12:00.509Z,3.00
2022-11-25T13:15:05.503Z,2.97
2022-11-25T13:17:36.177Z,2.80
2022-11-25T13:20:27.424Z,1.83
2022-11-25T13:23:10.231Z,2.40
2022-11-25T13:25:41.894Z,2.23
2022-11-25T13:28:27.070Z,1.73
2022-11-25T13:30:53.838Z,2.53
2022-11-25T13:33:20.331Z,3.43
2022-11-25T13:35:51.428Z,3.70
2022-11-25T13:38:29.817Z,4.03
2022-11-25T13:41:01.992Z,3.70
2022-11-25T13:43:28.696Z,2.80
2022-11-25T13:45:56.066Z,2.80
2022-11-25T13:48:30.485Z,2.27
2022-11-25T13:51:17.329Z,2.33
2022-11-25T13:53:52.541Z,2.63
2022-11-25T13:56:29.077Z,2.80
2022-11-25T13:59:10.691Z,3.33
2022-11-25T14:01:55.364Z,3.00
2022-11-25T14:05:00.281Z,2.93
2022-11-25T14:07:56.849Z,2.50
2022-11-25T14:10:38.473Z,2.70
2022-11-25T14:13:26.613Z,2.87
2022-11-25T14:16:06.940Z,2.30
2022-11-25T14:19:21.777Z,2.83
2022-11-25T14:21:47.610Z,2.30
2022-11-25T14:24:22.172Z,4.03
2022-11-25T14:26:51.827Z,4.17
2022-11-25T14:29:26.007Z,5.30
2022-11-25T14:31:55.897Z,5.03
2022-11-25T14:34:27.462Z,2.90
2022-11-25T14:36:58.488Z,4.47
2022-11-25T14:39:39.938Z,2.30
2022-11-25T14:42:09.883Z,3.30
2022-11-25T14:44:56.304Z,3.17
2022-11-25T14:47:34.622Z,2.60
2022-11-25T14:50:32.948Z,2.60
2022-11-25T14:52:53.011Z,2.10
2022-11-25T14:55:32.082Z,2.00
2022-11-25T14:57:58.692Z,3.03
2022-11-25T15:00:25.366Z,2.80
2022-11-25T15:03:06.472Z,3.33
2022-11-25T15:05:36.349Z,3.67
2022-11-25T15:08:12.303Z,3.10
2022-11-25T15:10:52.238Z,2.60
2022-11-25T15:13:34.558Z,1.80
2022-11-25T15:16:21.882Z,3.07
2022-11-25T15:18:54.806Z,3.43
2022-11-25T15:21:23.739Z,2.90
2022-11-25T15:23:50.343Z,3.80
2022-11-25T15:26:20.092Z,3.70
2022-11-25T15:28:47.076Z,3.70
2022-11-25T15:31:21.894Z,2.90
2022-11-25T15:33:54.386Z,2.80
2022-11-25T15:36:23.866Z,2.20
2022-11-25T15:38:50.668Z,2.47
2022-11-25T15:41:32.443Z,2.60
2022-11-25T15:44:01.823Z,4.63
2022-11-25T15:46:29.379Z,4.90
2022-11-25T15:48:59.230Z,3.93
2022-11-25T15:51:44.418Z,2.77
2022-11-25T15:54:29.980Z,3.17
2022-11-25T15:57:00.150Z,3.20
2022-11-25T15:59:47.773Z,3.27
2022-11-25T16:02:37.541Z,3.10
2022-11-25T16:05:15.404Z,3.47
2022-11-25T16:07:54.633Z,3.30
2022-11-25T16:10:33.966Z,3.35
2022-11-25T16:13:25.799Z,3.93
2022-11-25T16:16:09.742Z,3.40
2022-11-25T16:19:06.635Z,3.35
2022-11-25T16:21:35.990Z,3.58
2022-11-25T16:24:13.670Z,3.27
2022-11-25T16:26:50.761Z,3.67
2022-11-25T16:29:19.528Z,4.37
2022-11-25T16:31:46.159Z,4.70
2022-11-25T16:34:18.202Z,4.30
2022-11-25T16:36:45.094Z,4.40
2022-11-25T16:39:12.014Z,4.40
2022-11-25T16:41:38.876Z,4.37
2022-11-25T16:44:09.029Z,3.90
2022-11-25T16:46:35.721Z,4.10
2022-11-25T16:49:08.518Z,3.80
2022-11-25T16:51:35.004Z,3.23
2022-11-25T16:54:01.638Z,4.33
2022-11-25T16:56:30.097Z,4.97
2022-11-25T16:58:57.743Z,6.23
2022-11-25T17:01:27.660Z,5.90
2022-11-25T17:03:54.250Z,4.07
2022-11-25T17:06:23.234Z,3.77
2022-11-25T17:08:50.915Z,3.43
2022-11-25T17:11:33.056Z,3.03
2022-11-25T17:14:03.346Z,3.50
2022-11-25T17:16:30.612Z,2.63
2022-11-25T17:18:58.708Z,3.03
2022-11-25T17:21:28.024Z,2.80
2022-11-25T17:23:58.568Z,3.23
2022-11-25T17:26:37.561Z,3.30
2022-11-25T17:29:06.928Z,3.10
2022-11-25T17:31:33.890Z,3.17
2022-11-25T17:34:00.496Z,3.60
2022-11-25T17:36:27.324Z,3.30
2022-11-25T17:38:53.890Z,3.73
2022-11-25T17:41:21.271Z,4.47
2022-11-25T17:43:49.457Z,3.40
2022-11-25T17:46:16.986Z,2.97
2022-11-25T17:48:44.026Z,3.33
2022-11-25T17:51:11.876Z,3.40
2022-11-25T17:53:39.733Z,3.80
2022-11-25T17:56:15.834Z,4.23
2022-11-25T17:58:42.391Z,3.40
2022-11-25T18:01:09.703Z,3.43
2022-11-25T18:03:36.453Z,3.97
2022-11-25T18:06:03.336Z,4.20
2022-11-25T18:08:30.451Z,3.73
2022-11-25T18:10:58.139Z,3.20
2022-11-25T18:13:24.862Z,3.80
2022-11-25T18:15:51.576Z,3.77
2022-11-25T18:18:25.492Z,3.47
2022-11-25T18:20:53.034Z,4.30
2022-11-25T18:23:19.920Z,2.87
2022-11-25T18:25:46.717Z,2.87
2022-11-25T18:28:17.581Z,3.30
2022-11-25T18:30:44.639Z,3.50
2022-11-25T18:33:15.989Z,3.87
2022-11-25T18:35:43.506Z,3.80
2022-11-25T18:38:10.273Z,3.67
2022-11-25T18:40:40.226Z,3.80
2022-11-25T18:43:07.657Z,3.80
2022-11-25T18:45:36.591Z,3.53
2022-11-25T18:48:13.584Z,4.33
2022-11-25T18:50:40.223Z,4.00
2022-11-25T18:53:06.812Z,6.00
2022-11-25T18:55:33.510Z,8.03
2022-11-25T18:58:00.782Z,4.93
2022-11-25T19:00:33.372Z,4.87
2022-11-25T19:03:00.415Z,4.10
2022-11-25T19:05:32.137Z,3.70
2022-11-25T19:07:58.860Z,7.90
2022-11-25T19:10:28.381Z,4.53
2022-11-25T19:12:57.905Z,4.40
2022-11-25T19:15:25.210Z,4.13
2022-11-25T19:17:57.307Z,4.07
2022-11-25T19:20:25.974Z,4.20
2022-11-25T19:22:56.663Z,5.00
2022-11-25T19:25:26.747Z,4.73
2022-11-25T19:27:55.452Z,4.80
2022-11-25T19:30:24.063Z,4.87
2022-11-25T19:32:53.890Z,4.07
2022-11-25T19:35:26.771Z,4.03
2022-11-25T19:37:53.849Z,4.23
2022-11-25T19:40:22.423Z,4.70
2022-11-25T19:42:48.865Z,4.70
2022-11-25T19:45:17.382Z,3.77
2022-11-25T19:47:45.187Z,4.10
2022-11-25T19:50:19.806Z,5.50
2022-11-25T19:52:46.624Z,5.87
2022-11-25T19:55:15.904Z,5.43
2022-11-25T19:57:42.341Z,5.00
2022-11-25T20:00:09.815Z,5.23
2022-11-25T20:02:36.413Z,4.53
2022-11-25T20:05:04.685Z,5.40
2022-11-25T20:07:32.109Z,4.83
2022-11-25T20:10:22.677Z,5.57
2022-11-25T20:12:49.327Z,4.50
2022-11-25T20:15:16.529Z,4.80
2022-11-25T20:17:45.494Z,5.23
2022-11-25T20:20:20.350Z,4.80
2022-11-25T20:22:54.867Z,9.80
2022-11-25T20:25:21.737Z,8.47
2022-11-25T20:27:48.522Z,6.80
2022-11-25T20:30:26.683Z,5.90
2022-11-25T20:32:53.687Z,5.50
2022-11-25T20:35:21.031Z,5.17
2022-11-25T20:37:51.287Z,4.83
2022-11-25T20:40:37.307Z,4.60
2022-11-25T20:43:03.901Z,4.80
2022-11-25T20:45:30.560Z,4.80
2022-11-25T20:47:59.006Z,4.90
2022-11-25T20:50:25.581Z,4.93
2022-11-25T20:52:52.122Z,5.60
2022-11-25T20:55:27.942Z,5.13
2022-11-25T20:57:54.522Z,5.97
2022-11-25T21:00:28.435Z,5.80
2022-11-25T21:02:57.373Z,5.80
2022-11-25T21:05:24.022Z,5.10
2022-11-25T21:07:51.074Z,5.00
2022-11-25T21:10:29.126Z,5.63
2022-11-25T21:12:56.545Z,4.87
2022-11-25T21:15:29.254Z,4.40
2022-11-25T21:17:57.700Z,5.47
2022-11-25T21:20:24.454Z,5.07
2022-11-25T21:22:54.487Z,4.60
2022-11-25T21:25:22.924Z,4.63
2022-11-25T21:27:51.248Z,5.33
2022-11-25T21:30:30.958Z,4.50
2022-11-25T21:33:01.107Z,4.80
2022-11-25T21:35:33.220Z,5.30
2022-11-25T21:38:03.825Z,5.60
2022-11-25T21:40:34.862Z,5.27
2022-11-25T21:43:01.445Z,5.03
2022-11-25T21:45:28.018Z,5.77
2022-11-25T21:47:54.656Z,6.60
2022-11-25T21:50:21.343Z,6.80
2022-11-25T21:52:47.966Z,9.07
2022-11-25T21:55:16.334Z,7.93
2022-11-25T21:57:42.998Z,7.20
2022-11-25T22:00:20.476Z,7.13
2022-11-25T22:02:47.870Z,6.83
2022-11-25T22:05:19.083Z,12.37
2022-11-25T22:07:45.770Z,9.57
2022-11-25T22:10:15.287Z,8.27
2022-11-25T22:12:43.797Z,7.60
2022-11-25T22:15:14.688Z,7.07
2022-11-25T22:17:41.626Z,7.40
2022-11-25T22:20:26.753Z,6.27
2022-11-25T22:22:53.367Z,6.17
2022-11-25T22:25:20.096Z,6.80
2022-11-25T22:27:47.251Z,5.47
2022-11-25T22:30:16.423Z,6.27
2022-11-25T22:32:44.481Z,6.27
2022-11-25T22:35:21.409Z,5.40
2022-11-25T22:37:54.692Z,7.00
2022-11-25T22:40:22.639Z,6.90
2022-11-25T22:42:50.141Z,6.73
2022-11-25T22:45:33.996Z,6.87
2022-11-25T22:48:03.853Z,9.03
2022-11-25T22:50:32.683Z,9.27
2022-11-25T22:53:00.161Z,6.80
2022-11-25T22:55:29.136Z,6.73
2022-11-25T22:57:57.445Z,8.40
2022-11-25T23:00:31.116Z,7.80
2022-11-25T23:02:59.402Z,7.50
2022-11-25T23:05:32.269Z,6.50
2022-11-25T23:08:01.180Z,6.97
2022-11-25T23:10:30.383Z,6.80
2022-11-25T23:12:57.052Z,6.13
2022-11-25T23:15:24.431Z,7.20
2022-11-25T23:17:56.382Z,6.60
2022-11-25T23:20:28.377Z,6.43
2022-11-25T23:22:55.013Z,6.17
2022-11-25T23:25:23.165Z,5.80
2022-11-25T23:27:49.797Z,5.47
2022-11-25T23:30:21.454Z,5.17
2022-11-25T23:32:49.675Z,5.70
2022-11-25T23:35:20.971Z,5.60
2022-11-25T23:37:55.953Z,5.60
2022-11-25T23:40:24.606Z,5.60
2022-11-25T23:42:51.694Z,5.17
2022-11-25T23:45:21.073Z,5.30
2022-11-25T23:47:49.401Z,5.30
2022-11-25T23:50:25.253Z,5.13
2022-11-25T23:52:52.861Z,4.80
2022-11-25T23:55:23.854Z,5.30
2022-11-25T23:57:50.454Z,6.00
